Погода Старенжинна 2 недели

Великопольское воеводство, Польша

17 - 30 июля
  • 17июля
    Сегодня
    +15°
    +26°
    Облачно с прояснениями
    ВремяПогодаТемператураВлажностьДавлениеВетер, м/сВероятность осадков
    02:00Ясно и безоблачно+18°C87 %754 мм2.9 м/с2 %
    05:00Ясно и безоблачно+17°C89 %755 мм2.3 м/с2 %
    08:00Ясно и безоблачно+20°C74 %757 мм4.2 м/с2 %
    11:00Практически безоблачно+23°C55 %757 мм3.8 м/с2 %
    14:00Облачно с прояснениями+26°C47 %757 мм5.6 м/с3 %
    17:00Облачно с прояснениями+25°C45 %757 мм5.7 м/с2 %
    20:00Ясно и безоблачно+23°C64 %758 мм2.1 м/с2 %
    23:00Ясно и безоблачно+18°C81 %759 мм2.2 м/с2 %
  • 18июля
    Четверг
    +15°
    +25°
    Небольшая облачность
    ВремяПогодаТемператураВлажностьДавлениеВетер, м/сВероятность осадков
    02:00Ясно и безоблачно+17°C86 %759 мм1.6 м/с2 %
    05:00Ясно и безоблачно+15°C88 %759 мм2.2 м/с2 %
    08:00Ясно и безоблачно+18°C79 %760 мм3.1 м/с2 %
    11:00Практически безоблачно+22°C61 %761 мм4.0 м/с2 %
    14:00Небольшая облачность+24°C53 %761 мм4.2 м/с7 %
    17:00Небольшая облачность+24°C49 %760 мм4.2 м/с2 %
    20:00Ясно и безоблачно+23°C65 %760 мм1.6 м/с2 %
    23:00Облачно с прояснениями+18°C78 %761 мм2.0 м/с2 %
  • 19июля
    Пятница
    +14°
    +26°
    Практически безоблачно
    ВремяПогодаТемператураВлажностьДавлениеВетер, м/сВероятность осадков
    02:00Облачно с прояснениями+16°C92 %761 мм1.6 м/с2 %
    05:00Облачно с прояснениями+16°C95 %761 мм1.5 м/с2 %
    08:00Ясно и безоблачно+19°C76 %761 мм0.3 м/с2 %
    11:00Ясно и безоблачно+23°C61 %760 мм1.5 м/с2 %
    14:00Практически безоблачно+26°C50 %760 мм2.5 м/с2 %
    17:00Практически безоблачно+26°C43 %758 мм2.6 м/с2 %
    20:00Ясно и безоблачно+23°C58 %758 мм2.8 м/с2 %
    23:00Облачно с прояснениями+18°C76 %758 мм2.3 м/с2 %
  • 20июля
    Суббота
    +15°
    +27°
    Ясно и безоблачно
    ВремяПогодаТемператураВлажностьДавлениеВетер, м/сВероятность осадков
    02:00Небольшая облачность+15°C86 %757 мм2.1 м/с2 %
    05:00Ясно и безоблачно+15°C93 %756 мм1.7 м/с2 %
    08:00Ясно и безоблачно+18°C73 %756 мм0.7 м/с2 %
    11:00Ясно и безоблачно+23°C55 %755 мм0.8 м/с2 %
    14:00Ясно и безоблачно+26°C44 %754 мм1.7 м/с2 %
    17:00Ясно и безоблачно+26°C40 %753 мм1.2 м/с2 %
    20:00Ясно и безоблачно+24°C53 %752 мм2.0 м/с2 %
    23:00Небольшая облачность+18°C66 %752 мм2.2 м/с2 %
  • 21июля
    Воскресенье
    +17°
    +29°
    Практически безоблачно
    ВремяПогодаТемператураВлажностьДавлениеВетер, м/сВероятность осадков
    02:00Практически безоблачно+16°C79 %752 мм2.3 м/с2 %
    05:00Ясно и безоблачно+15°C89 %751 мм1.8 м/с2 %
    08:00Ясно и безоблачно+20°C76 %751 мм1.9 м/с2 %
    11:00Ясно и безоблачно+26°C49 %751 мм2.4 м/с2 %
    14:00Практически безоблачно+28°C42 %749 мм2.8 м/с3 %
    17:00Практически безоблачно+29°C39 %748 мм2.3 м/с4 %
    20:00Облачно с прояснениями+26°C52 %748 мм3.1 м/с5 %
    23:00Небольшая облачность+21°C57 %748 мм3.6 м/с10 %
Мы используем cookies
Соглашаюсь